sensor_id;sensor_type;location;lat;lon;timestamp;temperature;humidity
29281;DHT22;25048;49.590;11.026;2023-01-15T00:01:30;7.80;99.90
29281;DHT22;25048;49.590;11.026;2023-01-15T00:04:01;7.80;99.90
29281;DHT22;25048;49.590;11.026;2023-01-15T00:06:36;7.80;99.90
29281;DHT22;25048;49.590;11.026;2023-01-15T00:09:00;7.80;99.90
29281;DHT22;25048;49.590;11.026;2023-01-15T00:11:27;7.80;99.90
29281;DHT22;25048;49.590;11.026;2023-01-15T00:13:55;7.80;99.90
29281;DHT22;25048;49.590;11.026;2023-01-15T00:16:24;7.90;99.90
29281;DHT22;25048;49.590;11.026;2023-01-15T00:18:55;7.90;99.90
29281;DHT22;25048;49.590;11.026;2023-01-15T00:21:24;7.90;99.90
29281;DHT22;25048;49.590;11.026;2023-01-15T00:23:52;8.00;99.90
29281;DHT22;25048;49.590;11.026;2023-01-15T00:26:39;7.90;99.90
29281;DHT22;25048;49.590;11.026;2023-01-15T00:29:25;7.90;99.90
29281;DHT22;25048;49.590;11.026;2023-01-15T00:31:55;7.90;99.90
29281;DHT22;25048;49.590;11.026;2023-01-15T00:34:24;7.90;99.90
29281;DHT22;25048;49.590;11.026;2023-01-15T00:36:52;7.90;99.90
29281;DHT22;25048;49.590;11.026;2023-01-15T00:39:20;8.00;99.90
29281;DHT22;25048;49.590;11.026;2023-01-15T00:41:49;8.00;99.90
29281;DHT22;25048;49.590;11.026;2023-01-15T00:44:18;8.00;99.90
29281;DHT22;25048;49.590;11.026;2023-01-15T00:46:46;7.90;99.90
29281;DHT22;25048;49.590;11.026;2023-01-15T00:49:14;7.90;99.90
29281;DHT22;25048;49.590;11.026;2023-01-15T00:51:41;8.00;99.90
29281;DHT22;25048;49.590;11.026;2023-01-15T00:54:09;8.00;99.90
29281;DHT22;25048;49.590;11.026;2023-01-15T00:56:36;8.00;99.90
29281;DHT22;25048;49.590;11.026;2023-01-15T00:59:04;8.10;99.90
29281;DHT22;25048;49.590;11.026;2023-01-15T01:01:32;8.10;99.90
29281;DHT22;25048;49.590;11.026;2023-01-15T01:04:00;8.20;99.90
29281;DHT22;25048;49.590;11.026;2023-01-15T01:06:28;8.20;99.90
29281;DHT22;25048;49.590;11.026;2023-01-15T01:08:56;8.30;99.90
29281;DHT22;25048;49.590;11.026;2023-01-15T01:11:24;8.30;99.90
29281;DHT22;25048;49.590;11.026;2023-01-15T01:13:54;8.40;99.90
29281;DHT22;25048;49.590;11.026;2023-01-15T01:19:01;8.50;99.90
29281;DHT22;25048;49.590;11.026;2023-01-15T01:21:29;8.50;99.90
29281;DHT22;25048;49.590;11.026;2023-01-15T01:23:58;8.50;99.90
29281;DHT22;25048;49.590;11.026;2023-01-15T01:26:28;8.50;99.90
29281;DHT22;25048;49.590;11.026;2023-01-15T01:28:57;8.50;99.90
29281;DHT22;25048;49.590;11.026;2023-01-15T01:31:24;8.50;99.90
29281;DHT22;25048;49.590;11.026;2023-01-15T01:33:54;8.60;99.90
29281;DHT22;25048;49.590;11.026;2023-01-15T01:36:27;8.50;99.90
29281;DHT22;25048;49.590;11.026;2023-01-15T01:38:55;8.50;99.90
29281;DHT22;25048;49.590;11.026;2023-01-15T01:41:23;8.60;99.90
29281;DHT22;25048;49.590;11.026;2023-01-15T01:44:06;8.60;99.90
29281;DHT22;25048;49.590;11.026;2023-01-15T01:46:35;8.70;99.90
29281;DHT22;25048;49.590;11.026;2023-01-15T01:49:11;8.70;99.90
29281;DHT22;25048;49.590;11.026;2023-01-15T01:51:48;8.70;99.90
29281;DHT22;25048;49.590;11.026;2023-01-15T01:54:14;8.70;99.90
29281;DHT22;25048;49.590;11.026;2023-01-15T01:56:43;8.70;99.90
29281;DHT22;25048;49.590;11.026;2023-01-15T01:59:11;8.90;99.90
29281;DHT22;25048;49.590;11.026;2023-01-15T02:01:38;8.90;99.90
29281;DHT22;25048;49.590;11.026;2023-01-15T02:04:08;9.00;99.90
29281;DHT22;25048;49.590;11.026;2023-01-15T02:06:37;9.10;99.90
29281;DHT22;25048;49.590;11.026;2023-01-15T02:09:05;9.20;99.90
29281;DHT22;25048;49.590;11.026;2023-01-15T02:11:33;9.20;99.90
29281;DHT22;25048;49.590;11.026;2023-01-15T02:14:16;9.30;99.90
29281;DHT22;25048;49.590;11.026;2023-01-15T02:20:11;9.40;99.90
29281;DHT22;25048;49.590;11.026;2023-01-15T02:22:44;9.40;99.90
29281;DHT22;25048;49.590;11.026;2023-01-15T02:25:18;9.50;99.90
29281;DHT22;25048;49.590;11.026;2023-01-15T02:27:53;9.50;99.90
29281;DHT22;25048;49.590;11.026;2023-01-15T02:30:28;9.50;99.90
29281;DHT22;25048;49.590;11.026;2023-01-15T02:32:58;9.60;99.90
29281;DHT22;25048;49.590;11.026;2023-01-15T02:35:32;9.60;99.90
29281;DHT22;25048;49.590;11.026;2023-01-15T02:38:00;9.60;99.90
29281;DHT22;25048;49.590;11.026;2023-01-15T02:40:29;9.60;99.90
29281;DHT22;25048;49.590;11.026;2023-01-15T02:42:58;9.60;99.90
29281;DHT22;25048;49.590;11.026;2023-01-15T02:45:29;9.60;99.90
29281;DHT22;25048;49.590;11.026;2023-01-15T02:48:01;9.50;99.90
29281;DHT22;25048;49.590;11.026;2023-01-15T02:50:31;9.60;99.90
29281;DHT22;25048;49.590;11.026;2023-01-15T02:53:00;9.70;99.90
29281;DHT22;25048;49.590;11.026;2023-01-15T02:55:36;9.70;99.90
29281;DHT22;25048;49.590;11.026;2023-01-15T02:58:06;9.70;99.90
29281;DHT22;25048;49.590;11.026;2023-01-15T03:00:37;9.70;99.90
29281;DHT22;25048;49.590;11.026;2023-01-15T03:03:14;9.80;99.90
29281;DHT22;25048;49.590;11.026;2023-01-15T03:05:56;9.80;99.90
29281;DHT22;25048;49.590;11.026;2023-01-15T03:08:24;9.80;99.90
29281;DHT22;25048;49.590;11.026;2023-01-15T03:11:07;9.80;99.90
29281;DHT22;25048;49.590;11.026;2023-01-15T03:13:59;9.80;99.90
29281;DHT22;25048;49.590;11.026;2023-01-15T03:16:37;9.90;99.90
29281;DHT22;25048;49.590;11.026;2023-01-15T03:21:49;9.80;99.90
29281;DHT22;25048;49.590;11.026;2023-01-15T03:24:24;9.90;99.90
29281;DHT22;25048;49.590;11.026;2023-01-15T03:26:53;9.90;99.90
29281;DHT22;25048;49.590;11.026;2023-01-15T03:29:23;9.90;99.90
29281;DHT22;25048;49.590;11.026;2023-01-15T03:31:51;9.90;99.90
29281;DHT22;25048;49.590;11.026;2023-01-15T03:34:19;9.90;99.90
29281;DHT22;25048;49.590;11.026;2023-01-15T03:36:46;9.90;99.90
29281;DHT22;25048;49.590;11.026;2023-01-15T03:39:14;9.90;99.90
29281;DHT22;25048;49.590;11.026;2023-01-15T03:42:00;10.00;99.90
29281;DHT22;25048;49.590;11.026;2023-01-15T03:44:51;10.00;99.90
29281;DHT22;25048;49.590;11.026;2023-01-15T03:47:22;10.00;99.90
29281;DHT22;25048;49.590;11.026;2023-01-15T03:50:09;10.10;99.90
29281;DHT22;25048;49.590;11.026;2023-01-15T03:57:54;10.10;99.90
29281;DHT22;25048;49.590;11.026;2023-01-15T04:00:26;10.20;99.90
29281;DHT22;25048;49.590;11.026;2023-01-15T04:02:56;10.10;99.90
29281;DHT22;25048;49.590;11.026;2023-01-15T04:05:25;10.10;99.90
29281;DHT22;25048;49.590;11.026;2023-01-15T04:07:56;10.20;99.90
29281;DHT22;25048;49.590;11.026;2023-01-15T04:10:24;10.20;99.90
29281;DHT22;25048;49.590;11.026;2023-01-15T04:12:52;10.20;99.90
29281;DHT22;25048;49.590;11.026;2023-01-15T04:15:19;10.20;99.90
29281;DHT22;25048;49.590;11.026;2023-01-15T04:17:47;10.10;99.90
29281;DHT22;25048;49.590;11.026;2023-01-15T04:20:15;10.00;99.90
29281;DHT22;25048;49.590;11.026;2023-01-15T04:22:42;9.90;99.90
29281;DHT22;25048;49.590;11.026;2023-01-15T04:25:10;9.90;99.90
29281;DHT22;25048;49.590;11.026;2023-01-15T04:27:37;9.90;99.90
29281;DHT22;25048;49.590;11.026;2023-01-15T04:30:05;9.90;99.90
29281;DHT22;25048;49.590;11.026;2023-01-15T04:32:33;9.80;99.90
29281;DHT22;25048;49.590;11.026;2023-01-15T04:35:00;9.80;99.90
29281;DHT22;25048;49.590;11.026;2023-01-15T04:37:28;9.80;99.90
29281;DHT22;25048;49.590;11.026;2023-01-15T04:39:55;9.70;99.90
29281;DHT22;25048;49.590;11.026;2023-01-15T04:42:23;9.60;99.90
29281;DHT22;25048;49.590;11.026;2023-01-15T04:45:09;9.50;99.90
29281;DHT22;25048;49.590;11.026;2023-01-15T04:47:36;9.50;99.90
29281;DHT22;25048;49.590;11.026;2023-01-15T04:50:04;9.40;99.90
29281;DHT22;25048;49.590;11.026;2023-01-15T04:52:32;9.30;99.90
29281;DHT22;25048;49.590;11.026;2023-01-15T04:54:59;9.30;99.90
29281;DHT22;25048;49.590;11.026;2023-01-15T04:57:26;9.30;99.90
29281;DHT22;25048;49.590;11.026;2023-01-15T04:59:54;9.30;99.90
29281;DHT22;25048;49.590;11.026;2023-01-15T05:02:21;9.30;99.90
29281;DHT22;25048;49.590;11.026;2023-01-15T05:04:49;9.30;99.90
29281;DHT22;25048;49.590;11.026;2023-01-15T05:07:16;9.30;99.90
29281;DHT22;25048;49.590;11.026;2023-01-15T05:09:45;9.30;99.90
29281;DHT22;25048;49.590;11.026;2023-01-15T05:12:14;9.40;99.90
29281;DHT22;25048;49.590;11.026;2023-01-15T05:14:41;9.40;99.90
29281;DHT22;25048;49.590;11.026;2023-01-15T05:17:09;9.50;99.90
29281;DHT22;25048;49.590;11.026;2023-01-15T05:19:37;9.60;99.90
29281;DHT22;25048;49.590;11.026;2023-01-15T05:22:04;9.60;99.90
29281;DHT22;25048;49.590;11.026;2023-01-15T05:24:32;9.60;99.90
29281;DHT22;25048;49.590;11.026;2023-01-15T05:26:59;9.70;99.90
29281;DHT22;25048;49.590;11.026;2023-01-15T05:29:27;9.70;99.90
29281;DHT22;25048;49.590;11.026;2023-01-15T05:31:55;9.70;99.90
29281;DHT22;25048;49.590;11.026;2023-01-15T05:34:22;9.70;99.90
29281;DHT22;25048;49.590;11.026;2023-01-15T05:36:50;9.70;99.90
29281;DHT22;25048;49.590;11.026;2023-01-15T05:39:17;9.80;99.90
29281;DHT22;25048;49.590;11.026;2023-01-15T05:41:45;9.70;99.90
29281;DHT22;25048;49.590;11.026;2023-01-15T05:44:18;9.70;99.90
29281;DHT22;25048;49.590;11.026;2023-01-15T05:46:47;9.80;99.90
29281;DHT22;25048;49.590;11.026;2023-01-15T05:49:18;9.70;99.90
29281;DHT22;25048;49.590;11.026;2023-01-15T05:51:45;9.60;99.90
29281;DHT22;25048;49.590;11.026;2023-01-15T05:54:19;9.60;99.90
29281;DHT22;25048;49.590;11.026;2023-01-15T05:56:44;9.50;99.90
29281;DHT22;25048;49.590;11.026;2023-01-15T05:59:14;9.40;99.90
29281;DHT22;25048;49.590;11.026;2023-01-15T06:01:42;9.30;99.90
29281;DHT22;25048;49.590;11.026;2023-01-15T06:04:11;9.30;99.90
29281;DHT22;25048;49.590;11.026;2023-01-15T06:06:48;9.20;99.90
29281;DHT22;25048;49.590;11.026;2023-01-15T06:09:17;9.20;99.90
29281;DHT22;25048;49.590;11.026;2023-01-15T06:11:45;9.10;99.90
29281;DHT22;25048;49.590;11.026;2023-01-15T06:14:13;9.10;99.90
29281;DHT22;25048;49.590;11.026;2023-01-15T06:16:41;9.00;99.90
29281;DHT22;25048;49.590;11.026;2023-01-15T06:19:10;9.00;99.90
29281;DHT22;25048;49.590;11.026;2023-01-15T06:21:37;9.00;99.90
29281;DHT22;25048;49.590;11.026;2023-01-15T06:24:05;8.90;99.90
29281;DHT22;25048;49.590;11.026;2023-01-15T06:26:33;8.80;99.90
29281;DHT22;25048;49.590;11.026;2023-01-15T06:29:00;8.70;99.90
29281;DHT22;25048;49.590;11.026;2023-01-15T06:31:28;8.50;99.90
29281;DHT22;25048;49.590;11.026;2023-01-15T06:33:55;8.40;99.90
29281;DHT22;25048;49.590;11.026;2023-01-15T06:36:25;8.20;99.90
29281;DHT22;25048;49.590;11.026;2023-01-15T06:38:53;8.00;99.90
29281;DHT22;25048;49.590;11.026;2023-01-15T06:41:23;8.00;99.90
29281;DHT22;25048;49.590;11.026;2023-01-15T06:44:14;7.80;99.90
29281;DHT22;25048;49.590;11.026;2023-01-15T06:47:04;7.60;99.90
29281;DHT22;25048;49.590;11.026;2023-01-15T06:49:52;7.50;99.90
29281;DHT22;25048;49.590;11.026;2023-01-15T06:52:20;7.30;99.90
29281;DHT22;25048;49.590;11.026;2023-01-15T06:54:48;7.20;99.90
29281;DHT22;25048;49.590;11.026;2023-01-15T06:57:16;7.10;99.90
29281;DHT22;25048;49.590;11.026;2023-01-15T06:59:46;7.00;99.90
29281;DHT22;25048;49.590;11.026;2023-01-15T07:02:14;6.90;99.90
29281;DHT22;25048;49.590;11.026;2023-01-15T07:04:43;6.80;99.90
29281;DHT22;25048;49.590;11.026;2023-01-15T07:07:10;6.70;99.90
29281;DHT22;25048;49.590;11.026;2023-01-15T07:09:38;6.70;99.90
29281;DHT22;25048;49.590;11.026;2023-01-15T07:12:05;6.70;99.90
29281;DHT22;25048;49.590;11.026;2023-01-15T07:14:33;6.60;99.90
29281;DHT22;25048;49.590;11.026;2023-01-15T07:17:00;6.60;99.90
29281;DHT22;25048;49.590;11.026;2023-01-15T07:19:28;6.60;99.90
29281;DHT22;25048;49.590;11.026;2023-01-15T07:21:55;6.50;99.90
29281;DHT22;25048;49.590;11.026;2023-01-15T07:24:23;6.50;99.90
29281;DHT22;25048;49.590;11.026;2023-01-15T07:26:50;6.40;99.90
29281;DHT22;25048;49.590;11.026;2023-01-15T07:29:18;6.40;99.90
29281;DHT22;25048;49.590;11.026;2023-01-15T07:31:45;6.30;99.90
29281;DHT22;25048;49.590;11.026;2023-01-15T07:34:13;6.30;99.90
29281;DHT22;25048;49.590;11.026;2023-01-15T07:36:40;6.20;99.90
29281;DHT22;25048;49.590;11.026;2023-01-15T07:39:09;6.20;99.90
29281;DHT22;25048;49.590;11.026;2023-01-15T07:41:37;6.10;99.90
29281;DHT22;25048;49.590;11.026;2023-01-15T07:44:23;6.00;99.90
29281;DHT22;25048;49.590;11.026;2023-01-15T07:47:25;5.90;99.90
29281;DHT22;25048;49.590;11.026;2023-01-15T07:50:23;5.90;99.90
29281;DHT22;25048;49.590;11.026;2023-01-15T07:52:47;5.80;99.90
29281;DHT22;25048;49.590;11.026;2023-01-15T07:55:15;5.70;99.90
29281;DHT22;25048;49.590;11.026;2023-01-15T07:57:43;5.70;99.90
29281;DHT22;25048;49.590;11.026;2023-01-15T08:00:14;5.70;99.90
29281;DHT22;25048;49.590;11.026;2023-01-15T08:02:41;5.70;99.90
29281;DHT22;25048;49.590;11.026;2023-01-15T08:05:11;5.70;99.90
29281;DHT22;25048;49.590;11.026;2023-01-15T08:07:39;5.80;99.90
29281;DHT22;25048;49.590;11.026;2023-01-15T08:10:09;5.70;99.90
29281;DHT22;25048;49.590;11.026;2023-01-15T08:12:37;5.70;99.90
29281;DHT22;25048;49.590;11.026;2023-01-15T08:15:22;5.80;99.90
29281;DHT22;25048;49.590;11.026;2023-01-15T08:17:50;5.80;99.90
29281;DHT22;25048;49.590;11.026;2023-01-15T08:20:22;5.70;99.90
29281;DHT22;25048;49.590;11.026;2023-01-15T08:22:51;5.70;99.90
29281;DHT22;25048;49.590;11.026;2023-01-15T08:25:21;5.70;99.90
29281;DHT22;25048;49.590;11.026;2023-01-15T08:27:50;5.70;99.90
29281;DHT22;25048;49.590;11.026;2023-01-15T08:30:23;5.60;99.90
29281;DHT22;25048;49.590;11.026;2023-01-15T08:32:51;5.60;99.90
29281;DHT22;25048;49.590;11.026;2023-01-15T08:35:18;5.60;99.90
29281;DHT22;25048;49.590;11.026;2023-01-15T08:37:46;5.50;99.90
29281;DHT22;25048;49.590;11.026;2023-01-15T08:40:13;5.50;99.90
29281;DHT22;25048;49.590;11.026;2023-01-15T08:42:41;5.50;99.90
29281;DHT22;25048;49.590;11.026;2023-01-15T08:45:09;5.50;99.90
29281;DHT22;25048;49.590;11.026;2023-01-15T08:47:36;5.50;99.90
29281;DHT22;25048;49.590;11.026;2023-01-15T08:50:05;5.50;99.90
29281;DHT22;25048;49.590;11.026;2023-01-15T08:52:34;5.40;99.90
29281;DHT22;25048;49.590;11.026;2023-01-15T08:55:03;5.40;99.90
29281;DHT22;25048;49.590;11.026;2023-01-15T08:57:31;5.30;99.90
29281;DHT22;25048;49.590;11.026;2023-01-15T08:59:59;5.30;99.90
29281;DHT22;25048;49.590;11.026;2023-01-15T09:02:26;5.30;99.90
29281;DHT22;25048;49.590;11.026;2023-01-15T09:04:55;5.30;99.90
29281;DHT22;25048;49.590;11.026;2023-01-15T09:07:22;5.40;99.90
29281;DHT22;25048;49.590;11.026;2023-01-15T09:09:50;5.40;99.90
29281;DHT22;25048;49.590;11.026;2023-01-15T09:12:17;5.40;99.90
29281;DHT22;25048;49.590;11.026;2023-01-15T09:14:45;5.40;99.90
29281;DHT22;25048;49.590;11.026;2023-01-15T09:17:12;5.40;99.90
29281;DHT22;25048;49.590;11.026;2023-01-15T09:19:40;5.40;99.90
29281;DHT22;25048;49.590;11.026;2023-01-15T09:22:07;5.40;99.90
29281;DHT22;25048;49.590;11.026;2023-01-15T09:24:35;5.40;99.90
29281;DHT22;25048;49.590;11.026;2023-01-15T09:27:02;5.40;99.90
29281;DHT22;25048;49.590;11.026;2023-01-15T09:29:30;5.40;99.90
29281;DHT22;25048;49.590;11.026;2023-01-15T09:31:57;5.40;99.90
29281;DHT22;25048;49.590;11.026;2023-01-15T09:34:26;5.40;99.90
29281;DHT22;25048;49.590;11.026;2023-01-15T09:36:53;5.50;99.90
29281;DHT22;25048;49.590;11.026;2023-01-15T09:39:21;5.30;99.90
29281;DHT22;25048;49.590;11.026;2023-01-15T09:45:15;5.30;99.90
29281;DHT22;25048;49.590;11.026;2023-01-15T09:48:03;5.30;99.90
29281;DHT22;25048;49.590;11.026;2023-01-15T09:53:27;5.20;99.90
29281;DHT22;25048;49.590;11.026;2023-01-15T09:55:53;5.10;99.90
29281;DHT22;25048;49.590;11.026;2023-01-15T09:58:26;5.00;99.90
29281;DHT22;25048;49.590;11.026;2023-01-15T10:00:51;4.90;99.90
29281;DHT22;25048;49.590;11.026;2023-01-15T10:03:50;4.90;99.90
29281;DHT22;25048;49.590;11.026;2023-01-15T10:06:18;4.80;99.90
29281;DHT22;25048;49.590;11.026;2023-01-15T10:08:45;4.80;99.90
29281;DHT22;25048;49.590;11.026;2023-01-15T10:13:55;4.80;99.90
29281;DHT22;25048;49.590;11.026;2023-01-15T10:16:26;4.70;99.90
29281;DHT22;25048;49.590;11.026;2023-01-15T10:18:55;4.80;99.90
29281;DHT22;25048;49.590;11.026;2023-01-15T10:21:31;4.70;99.90
29281;DHT22;25048;49.590;11.026;2023-01-15T10:24:07;4.70;99.90
29281;DHT22;25048;49.590;11.026;2023-01-15T10:26:39;4.70;99.90
29281;DHT22;25048;49.590;11.026;2023-01-15T10:32:19;4.60;99.90
29281;DHT22;25048;49.590;11.026;2023-01-15T10:37:58;4.60;99.90
29281;DHT22;25048;49.590;11.026;2023-01-15T10:46:13;4.70;99.90
29281;DHT22;25048;49.590;11.026;2023-01-15T10:48:47;4.70;99.90
29281;DHT22;25048;49.590;11.026;2023-01-15T10:54:26;4.60;99.90
29281;DHT22;25048;49.590;11.026;2023-01-15T10:57:03;4.60;99.90
29281;DHT22;25048;49.590;11.026;2023-01-15T10:59:47;4.50;99.90
29281;DHT22;25048;49.590;11.026;2023-01-15T11:02:20;4.50;99.90
29281;DHT22;25048;49.590;11.026;2023-01-15T11:04:46;4.50;99.90
29281;DHT22;25048;49.590;11.026;2023-01-15T11:07:14;4.50;99.90
29281;DHT22;25048;49.590;11.026;2023-01-15T11:09:42;4.50;99.90
29281;DHT22;25048;49.590;11.026;2023-01-15T11:12:29;4.40;99.90
29281;DHT22;25048;49.590;11.026;2023-01-15T11:14:51;4.50;99.90
29281;DHT22;25048;49.590;11.026;2023-01-15T11:17:42;4.60;99.90
29281;DHT22;25048;49.590;11.026;2023-01-15T11:20:45;4.70;99.90
29281;DHT22;25048;49.590;11.026;2023-01-15T11:23:17;4.80;99.90
29281;DHT22;25048;49.590;11.026;2023-01-15T11:25:53;4.80;99.90
29281;DHT22;25048;49.590;11.026;2023-01-15T11:28:36;4.80;99.90
29281;DHT22;25048;49.590;11.026;2023-01-15T11:31:09;4.80;99.90
29281;DHT22;25048;49.590;11.026;2023-01-15T11:33:37;4.70;99.90
29281;DHT22;25048;49.590;11.026;2023-01-15T11:36:16;4.70;99.90
29281;DHT22;25048;49.590;11.026;2023-01-15T11:38:44;4.70;99.90
29281;DHT22;25048;49.590;11.026;2023-01-15T11:43:54;4.70;99.90
29281;DHT22;25048;49.590;11.026;2023-01-15T11:46:40;4.80;99.90
29281;DHT22;25048;49.590;11.026;2023-01-15T11:49:26;4.80;99.90
29281;DHT22;25048;49.590;11.026;2023-01-15T11:52:15;4.80;99.90
29281;DHT22;25048;49.590;11.026;2023-01-15T11:54:45;5.00;99.90
29281;DHT22;25048;49.590;11.026;2023-01-15T11:57:24;5.10;99.90
29281;DHT22;25048;49.590;11.026;2023-01-15T11:59:47;5.10;99.90
29281;DHT22;25048;49.590;11.026;2023-01-15T12:02:37;5.20;99.90
29281;DHT22;25048;49.590;11.026;2023-01-15T12:05:21;5.20;99.90
29281;DHT22;25048;49.590;11.026;2023-01-15T12:07:54;5.20;99.90
29281;DHT22;25048;49.590;11.026;2023-01-15T12:10:28;5.10;99.90
29281;DHT22;25048;49.590;11.026;2023-01-15T12:16:07;5.10;99.90
29281;DHT22;25048;49.590;11.026;2023-01-15T12:18:50;5.00;99.90
29281;DHT22;25048;49.590;11.026;2023-01-15T12:29:30;5.10;99.90
29281;DHT22;25048;49.590;11.026;2023-01-15T12:32:10;5.10;99.90
29281;DHT22;25048;49.590;11.026;2023-01-15T12:34:54;5.20;99.90
29281;DHT22;25048;49.590;11.026;2023-01-15T12:37:37;5.20;99.90
29281;DHT22;25048;49.590;11.026;2023-01-15T12:40:20;5.20;99.90
29281;DHT22;25048;49.590;11.026;2023-01-15T12:42:50;5.20;99.90
29281;DHT22;25048;49.590;11.026;2023-01-15T12:45:44;5.10;99.90
29281;DHT22;25048;49.590;11.026;2023-01-15T12:48:45;5.10;99.90
29281;DHT22;25048;49.590;11.026;2023-01-15T12:51:17;5.10;99.90
29281;DHT22;25048;49.590;11.026;2023-01-15T12:54:02;5.00;99.90
29281;DHT22;25048;49.590;11.026;2023-01-15T12:56:32;5.00;99.90
29281;DHT22;25048;49.590;11.026;2023-01-15T12:59:25;4.80;99.90
29281;DHT22;25048;49.590;11.026;2023-01-15T13:04:56;4.50;99.90
29281;DHT22;25048;49.590;11.026;2023-01-15T13:07:36;4.40;99.90
29281;DHT22;25048;49.590;11.026;2023-01-15T13:10:17;4.20;99.90
29281;DHT22;25048;49.590;11.026;2023-01-15T13:12:45;4.10;99.90
29281;DHT22;25048;49.590;11.026;2023-01-15T13:15:17;4.00;99.90
29281;DHT22;25048;49.590;11.026;2023-01-15T13:18:02;4.00;99.90
29281;DHT22;25048;49.590;11.026;2023-01-15T13:20:49;4.00;99.90
29281;DHT22;25048;49.590;11.026;2023-01-15T13:23:34;3.90;99.90
29281;DHT22;25048;49.590;11.026;2023-01-15T13:29:14;3.90;99.90
29281;DHT22;25048;49.590;11.026;2023-01-15T13:31:51;3.90;99.90
29281;DHT22;25048;49.590;11.026;2023-01-15T13:37:46;3.90;99.90
29281;DHT22;25048;49.590;11.026;2023-01-15T13:39:46;3.90;99.90
29281;DHT22;25048;49.590;11.026;2023-01-15T13:42:23;4.00;99.90
29281;DHT22;25048;49.590;11.026;2023-01-15T13:45:00;3.90;99.90
29281;DHT22;25048;49.590;11.026;2023-01-15T13:47:30;4.00;99.90
29281;DHT22;25048;49.590;11.026;2023-01-15T13:50:01;4.00;99.90
29281;DHT22;25048;49.590;11.026;2023-01-15T13:52:35;4.00;99.90
29281;DHT22;25048;49.590;11.026;2023-01-15T13:55:26;4.00;99.90
29281;DHT22;25048;49.590;11.026;2023-01-15T13:57:54;4.00;99.90
29281;DHT22;25048;49.590;11.026;2023-01-15T14:03:22;3.90;99.90
29281;DHT22;25048;49.590;11.026;2023-01-15T14:05:33;3.90;99.90
29281;DHT22;25048;49.590;11.026;2023-01-15T14:08:13;3.90;99.90
29281;DHT22;25048;49.590;11.026;2023-01-15T14:10:34;3.90;99.90
29281;DHT22;25048;49.590;11.026;2023-01-15T14:16:18;3.90;99.90
29281;DHT22;25048;49.590;11.026;2023-01-15T14:21:55;3.90;99.90
29281;DHT22;25048;49.590;11.026;2023-01-15T14:24:31;3.80;99.90
29281;DHT22;25048;49.590;11.026;2023-01-15T14:29:50;3.70;99.90
29281;DHT22;25048;49.590;11.026;2023-01-15T14:32:29;3.70;99.90
29281;DHT22;25048;49.590;11.026;2023-01-15T14:34:58;3.70;99.90
29281;DHT22;25048;49.590;11.026;2023-01-15T14:37:37;3.70;99.90
29281;DHT22;25048;49.590;11.026;2023-01-15T14:40:02;3.70;99.90
29281;DHT22;25048;49.590;11.026;2023-01-15T14:42:34;3.70;99.90
29281;DHT22;25048;49.590;11.026;2023-01-15T14:45:44;3.70;99.90
29281;DHT22;25048;49.590;11.026;2023-01-15T14:48:05;3.70;99.90
29281;DHT22;25048;49.590;11.026;2023-01-15T14:50:40;3.70;99.90
29281;DHT22;25048;49.590;11.026;2023-01-15T14:56:12;3.70;99.90
29281;DHT22;25048;49.590;11.026;2023-01-15T14:58:43;3.70;99.90
29281;DHT22;25048;49.590;11.026;2023-01-15T15:01:58;3.60;99.90
29281;DHT22;25048;49.590;11.026;2023-01-15T15:04:03;3.60;99.90
29281;DHT22;25048;49.590;11.026;2023-01-15T15:06:29;3.70;99.90
29281;DHT22;25048;49.590;11.026;2023-01-15T15:09:02;3.70;99.90
29281;DHT22;25048;49.590;11.026;2023-01-15T15:11:35;3.80;99.90
29281;DHT22;25048;49.590;11.026;2023-01-15T15:14:23;3.80;99.90
29281;DHT22;25048;49.590;11.026;2023-01-15T15:16:58;3.70;99.90
29281;DHT22;25048;49.590;11.026;2023-01-15T15:19:37;3.70;99.90
29281;DHT22;25048;49.590;11.026;2023-01-15T15:22:05;3.70;99.90
29281;DHT22;25048;49.590;11.026;2023-01-15T15:24:35;3.80;99.90
29281;DHT22;25048;49.590;11.026;2023-01-15T15:27:21;3.90;99.90
29281;DHT22;25048;49.590;11.026;2023-01-15T15:29:49;3.90;99.90
29281;DHT22;25048;49.590;11.026;2023-01-15T15:32:23;4.00;99.90
29281;DHT22;25048;49.590;11.026;2023-01-15T15:34:50;4.00;99.90
29281;DHT22;25048;49.590;11.026;2023-01-15T15:37:27;3.80;99.90
29281;DHT22;25048;49.590;11.026;2023-01-15T15:42:30;3.50;99.90
29281;DHT22;25048;49.590;11.026;2023-01-15T15:45:19;3.40;99.90
29281;DHT22;25048;49.590;11.026;2023-01-15T15:48:15;3.20;99.90
29281;DHT22;25048;49.590;11.026;2023-01-15T15:50:56;3.00;99.90
29281;DHT22;25048;49.590;11.026;2023-01-15T15:53:24;2.90;99.90
29281;DHT22;25048;49.590;11.026;2023-01-15T15:55:53;2.90;99.90
29281;DHT22;25048;49.590;11.026;2023-01-15T15:58:32;2.90;99.90
29281;DHT22;25048;49.590;11.026;2023-01-15T16:01:01;2.90;99.90
29281;DHT22;25048;49.590;11.026;2023-01-15T16:03:31;3.00;99.90
29281;DHT22;25048;49.590;11.026;2023-01-15T16:06:05;3.10;99.90
29281;DHT22;25048;49.590;11.026;2023-01-15T16:08:34;3.00;99.90
29281;DHT22;25048;49.590;11.026;2023-01-15T16:11:10;2.90;99.90
29281;DHT22;25048;49.590;11.026;2023-01-15T16:13:50;2.80;99.90
29281;DHT22;25048;49.590;11.026;2023-01-15T16:16:19;2.70;99.90
29281;DHT22;25048;49.590;11.026;2023-01-15T16:18:49;2.60;99.90
29281;DHT22;25048;49.590;11.026;2023-01-15T16:21:25;2.50;99.90
29281;DHT22;25048;49.590;11.026;2023-01-15T16:24:05;2.50;99.90
29281;DHT22;25048;49.590;11.026;2023-01-15T16:26:48;2.40;99.90
29281;DHT22;25048;49.590;11.026;2023-01-15T16:29:18;2.40;99.90
29281;DHT22;25048;49.590;11.026;2023-01-15T16:31:46;2.30;99.90
29281;DHT22;25048;49.590;11.026;2023-01-15T16:34:27;2.20;99.90
29281;DHT22;25048;49.590;11.026;2023-01-15T16:36:51;2.10;99.90
29281;DHT22;25048;49.590;11.026;2023-01-15T16:39:43;2.00;99.90
29281;DHT22;25048;49.590;11.026;2023-01-15T16:42:33;2.00;99.90
29281;DHT22;25048;49.590;11.026;2023-01-15T16:45:00;2.10;99.90
29281;DHT22;25048;49.590;11.026;2023-01-15T16:47:31;2.00;99.90
29281;DHT22;25048;49.590;11.026;2023-01-15T16:52:53;1.80;99.90
29281;DHT22;25048;49.590;11.026;2023-01-15T16:55:44;1.70;99.90
29281;DHT22;25048;49.590;11.026;2023-01-15T17:00:45;1.60;99.90
29281;DHT22;25048;49.590;11.026;2023-01-15T17:03:22;1.40;99.90
29281;DHT22;25048;49.590;11.026;2023-01-15T17:05:59;1.30;99.90
29281;DHT22;25048;49.590;11.026;2023-01-15T17:08:32;1.30;99.90
29281;DHT22;25048;49.590;11.026;2023-01-15T17:11:08;1.30;99.90
29281;DHT22;25048;49.590;11.026;2023-01-15T17:13:38;1.20;99.90
29281;DHT22;25048;49.590;11.026;2023-01-15T17:16:18;1.20;99.90
29281;DHT22;25048;49.590;11.026;2023-01-15T17:18:47;1.10;99.90
29281;DHT22;25048;49.590;11.026;2023-01-15T17:21:23;1.00;99.90
29281;DHT22;25048;49.590;11.026;2023-01-15T17:23:53;1.00;99.90
29281;DHT22;25048;49.590;11.026;2023-01-15T17:26:24;1.00;99.90